Terminal Aerodrome Forecast
Issued by NWS Paducah, KY

Home | Current Version | Previous Version | Text Only | Print | Product List | Glossary On
Versions: 1 2 3 4 5 6 7 8 9 10 11 12 13 14 15 16 17
213
FTUS43 KPAH 012340
TAFPAH
TAF
KPAH 012340Z 0200/0224 24006KT P6SM SCT040
     FM020300 30006KT P6SM SKC
     FM021200 32005KT P6SM SCT060 BKN150
     FM022100 32008KT P6SM BKN050=

USA.gov is the U.S. government's official web portal to all federal, state and local government web resources and services.